createdAt,value
2022-08-03T00:01:48.492Z,101509.97
2022-08-03T00:04:14.947Z,101509.63
2022-08-03T00:06:41.475Z,101507.06
2022-08-03T00:09:08.454Z,101508.09
2022-08-03T00:11:35.285Z,101506.94
2022-08-03T00:14:01.755Z,101500.00
2022-08-03T00:16:28.225Z,101505.72
2022-08-03T00:18:54.673Z,101508.00
2022-08-03T00:21:21.104Z,101505.75
2022-08-03T00:23:52.079Z,101503.53
2022-08-03T03:12:06.399Z,101435.22
2022-08-03T03:23:42.854Z,101381.09
2022-08-03T03:27:20.967Z,101370.78
2022-08-03T05:30:27.307Z,101483.63
2022-08-03T05:59:38.295Z,101476.75
2022-08-03T06:13:14.251Z,101444.31
2022-08-03T06:15:40.687Z,101473.56
2022-08-03T06:18:07.897Z,101444.28
2022-08-03T06:20:34.343Z,101463.78
2022-08-03T06:23:01.989Z,101450.72
2022-08-03T06:29:21.823Z,101472.25
2022-08-03T06:49:08.543Z,101474.19
2022-08-03T06:52:04.086Z,101473.16
2022-08-03T06:54:25.381Z,101484.72
2022-08-03T06:56:52.290Z,101478.03
2022-08-03T07:00:06.199Z,101481.19
2022-08-03T07:02:05.462Z,101477.16
2022-08-03T07:50:00.314Z,101448.34
2022-08-03T07:53:07.381Z,101458.03
2022-08-03T07:57:13.175Z,101483.91
2022-08-03T08:00:01.938Z,101445.50
2022-08-03T08:06:27.893Z,101472.22
2022-08-03T08:11:55.650Z,101469.47
2022-08-03T08:14:31.917Z,101515.03
2022-08-03T08:17:07.339Z,101464.50
2022-08-03T08:19:34.026Z,101478.31
2022-08-03T08:22:05.780Z,101507.81
2022-08-03T08:24:36.593Z,101506.28
2022-08-03T08:27:03.391Z,101518.13
2022-08-03T08:29:30.029Z,101495.31
2022-08-03T08:31:57.968Z,101497.16
2022-08-03T08:34:24.443Z,101510.56
2022-08-03T08:36:50.966Z,101508.16
2022-08-03T08:39:19.829Z,101512.25
2022-08-03T08:41:48.677Z,101512.34
2022-08-03T08:44:19.405Z,101495.88
2022-08-03T08:46:51.209Z,101465.72
2022-08-03T08:49:20.803Z,101472.25
2022-08-03T08:51:59.115Z,101466.41
2022-08-03T08:54:30.214Z,101501.25
2022-08-03T08:56:59.806Z,101469.31
2022-08-03T08:59:26.385Z,101488.53
2022-08-03T09:02:03.029Z,101520.94
2022-08-03T09:04:39.641Z,101478.78
2022-08-03T09:07:20.174Z,101470.81
2022-08-03T09:10:12.495Z,101486.19
2022-08-03T09:12:47.109Z,101487.91
2022-08-03T09:15:28.217Z,101488.13
2022-08-03T09:17:57.687Z,101478.59
2022-08-03T09:20:29.152Z,101503.31
2022-08-03T09:23:01.634Z,101529.00
2022-08-03T09:25:35.400Z,101499.00
2022-08-03T09:28:13.640Z,101468.88
2022-08-03T09:31:03.179Z,101502.44
2022-08-03T09:33:34.849Z,101481.31
2022-08-03T09:36:10.608Z,101485.47
2022-08-03T09:38:37.433Z,101472.94
2022-08-03T09:41:17.763Z,101469.84
2022-08-03T09:43:47.657Z,101500.56
2022-08-03T09:46:21.419Z,101485.28
2022-08-03T09:48:47.967Z,101499.19
2022-08-03T09:51:32.925Z,101494.28
2022-08-03T09:54:17.592Z,101503.91
2022-08-03T09:57:06.620Z,101477.09
2022-08-03T09:59:38.089Z,101503.50
2022-08-03T10:02:24.225Z,101478.41
2022-08-03T10:04:52.906Z,101496.53
2022-08-03T10:07:21.620Z,101511.91
2022-08-03T10:10:30.054Z,101483.78
2022-08-03T10:12:57.863Z,101489.63
2022-08-03T10:16:21.563Z,101500.28
2022-08-03T10:18:13.535Z,101512.22
2022-08-03T10:20:52.133Z,101470.56
2022-08-03T10:23:22.311Z,101482.34
2022-08-03T10:28:51.199Z,101502.91
2022-08-03T10:31:19.683Z,101523.41
2022-08-03T10:33:52.795Z,101490.28
2022-08-03T10:36:23.401Z,101487.09
2022-08-03T10:39:53.776Z,101486.44
2022-08-03T10:42:28.160Z,101506.66
2022-08-03T10:45:35.182Z,101515.28
2022-08-03T10:48:25.928Z,101507.59
2022-08-03T10:51:12.673Z,101478.13
2022-08-03T10:53:54.502Z,101480.69
2022-08-03T10:56:52.786Z,101505.38
2022-08-03T10:59:46.773Z,101501.16
2022-08-03T11:02:16.290Z,101494.28
2022-08-03T11:04:48.189Z,101497.75
2022-08-03T11:07:28.589Z,101485.06
2022-08-03T11:09:58.355Z,101460.53
2022-08-03T11:12:33.923Z,101498.84
2022-08-03T11:18:36.668Z,101493.34
2022-08-03T11:21:26.612Z,101450.41
2022-08-03T11:24:03.048Z,101444.00
2022-08-03T11:26:32.814Z,101443.75
2022-08-03T11:29:29.157Z,101493.63
2022-08-03T11:31:58.285Z,101471.75
2022-08-03T11:34:26.325Z,101493.09
2022-08-03T11:37:18.367Z,101504.81
2022-08-03T11:39:56.758Z,101493.59
2022-08-03T11:42:28.161Z,101509.34
2022-08-03T11:45:03.877Z,101501.91
2022-08-03T11:47:50.543Z,101478.16
2022-08-03T11:50:19.043Z,101452.03
2022-08-03T11:52:47.827Z,101452.81
2022-08-03T11:55:25.018Z,101508.28
2022-08-03T11:59:11.042Z,101468.00
2022-08-03T12:00:54.282Z,101469.63
2022-08-03T12:03:24.399Z,101449.91
2022-08-03T12:05:55.805Z,101483.78
2022-08-03T12:08:38.502Z,101498.19
2022-08-03T12:11:07.603Z,101481.91
2022-08-03T12:14:45.265Z,101496.56
2022-08-03T12:16:37.784Z,101496.25
2022-08-03T12:19:08.148Z,101480.50
2022-08-03T12:21:57.390Z,101454.69
2022-08-03T12:24:51.959Z,101495.22
2022-08-03T12:27:29.828Z,101475.50
2022-08-03T12:30:02.028Z,101426.63
2022-08-03T12:32:29.215Z,101483.84
2022-08-03T12:35:01.486Z,101500.13
2022-08-03T12:37:29.080Z,101496.44
2022-08-03T12:40:10.058Z,101501.16
2022-08-03T12:42:38.482Z,101496.94
2022-08-03T12:45:24.827Z,101498.09
2022-08-03T12:47:57.938Z,101481.50
2022-08-03T12:50:32.694Z,101492.06
2022-08-03T12:53:00.944Z,101494.63
2022-08-03T12:55:56.353Z,101489.97
2022-08-03T12:58:34.781Z,101497.56
2022-08-03T13:01:04.799Z,101490.25
2022-08-03T13:03:50.361Z,101481.97
2022-08-03T13:06:22.621Z,101492.63
2022-08-03T13:08:49.680Z,101480.22
2022-08-03T13:11:43.432Z,101476.56
2022-08-03T13:14:19.602Z,101474.78
2022-08-03T13:16:46.925Z,101475.03
2022-08-03T13:19:15.244Z,101482.38
2022-08-03T13:22:01.760Z,101490.59
2022-08-03T13:24:29.589Z,101470.09
2022-08-03T13:26:56.999Z,101475.63
2022-08-03T13:29:23.409Z,101478.72
2022-08-03T13:31:50.874Z,101481.09
2022-08-03T13:34:22.917Z,101476.56
2022-08-03T13:37:08.498Z,101469.59
2022-08-03T13:39:48.091Z,101469.16
2022-08-03T13:42:22.141Z,101466.81
2022-08-03T13:44:48.601Z,101467.84
2022-08-03T13:47:15.023Z,101456.47
2022-08-03T13:49:41.481Z,101482.13
2022-08-03T13:52:07.950Z,101493.16
2022-08-03T13:54:34.498Z,101471.97
2022-08-03T13:58:04.669Z,101481.47
2022-08-03T13:59:47.481Z,101484.09
2022-08-03T14:02:13.960Z,101475.47
2022-08-03T14:04:40.492Z,101474.56
2022-08-03T14:07:06.970Z,101468.94
2022-08-03T14:09:33.377Z,101467.97
2022-08-03T14:12:07.495Z,101459.56
2022-08-03T14:14:35.185Z,101469.19
2022-08-03T14:17:01.629Z,101482.91
2022-08-03T14:19:28.880Z,101483.78
2022-08-03T14:22:06.170Z,101476.06
2022-08-03T14:24:33.311Z,101475.88
2022-08-03T14:27:07.177Z,101473.16
2022-08-03T14:29:37.652Z,101462.88
2022-08-03T14:32:09.519Z,101472.75
2022-08-03T14:34:38.723Z,101452.44
2022-08-03T14:37:05.228Z,101467.56
2022-08-03T14:39:58.255Z,101462.59
2022-08-03T14:42:18.056Z,101449.50
2022-08-03T14:44:44.577Z,101467.56
2022-08-03T14:47:11.031Z,101465.63
2022-08-03T14:50:36.068Z,101459.22
2022-08-03T14:52:24.357Z,101451.88
2022-08-03T14:54:50.845Z,101451.41
2022-08-03T14:57:17.496Z,101437.19
2022-08-03T14:59:56.317Z,101456.09
2022-08-03T15:02:24.210Z,101439.03
2022-08-03T15:04:50.935Z,101439.69
2022-08-03T15:07:17.474Z,101443.38
2022-08-03T15:09:44.118Z,101442.28
2022-08-03T15:12:10.572Z,101449.44
2022-08-03T15:14:37.815Z,101443.03
2022-08-03T15:17:04.552Z,101443.94
2022-08-03T15:20:03.239Z,101456.19
2022-08-03T15:22:20.714Z,101448.44
2022-08-03T15:24:51.587Z,101444.59
2022-08-03T15:27:18.175Z,101447.22
2022-08-03T15:30:07.741Z,101429.91
2022-08-03T15:32:31.237Z,101442.41
2022-08-03T15:34:57.662Z,101442.28
2022-08-03T15:37:25.603Z,101435.94
2022-08-03T15:39:59.286Z,101446.03
2022-08-03T15:42:28.459Z,101444.09
2022-08-03T15:44:54.899Z,101432.28
2022-08-03T15:47:21.635Z,101438.19
2022-08-03T15:49:48.326Z,101436.31
2022-08-03T15:52:14.731Z,101430.47
2022-08-03T15:54:41.249Z,101436.44
2022-08-03T15:57:07.799Z,101423.81
2022-08-03T15:59:36.618Z,101415.03
2022-08-03T16:02:03.601Z,101433.34
2022-08-03T16:04:30.126Z,101432.03
2022-08-03T16:06:56.545Z,101426.66
2022-08-03T16:09:43.291Z,101430.78
2022-08-03T16:12:11.746Z,101418.72
2022-08-03T16:14:51.724Z,101424.09
2022-08-03T16:17:20.074Z,101411.19
2022-08-03T16:19:46.695Z,101418.28
2022-08-03T16:22:13.428Z,101406.88
2022-08-03T16:24:41.072Z,101413.25
2022-08-03T16:27:17.229Z,101408.56
2022-08-03T16:29:44.386Z,101420.06
2022-08-03T16:32:11.261Z,101403.47
2022-08-03T16:34:39.244Z,101370.56
2022-08-03T16:37:35.350Z,101409.75
2022-08-03T16:39:55.543Z,101395.00
2022-08-03T16:42:21.942Z,101394.34
2022-08-03T16:44:48.342Z,101400.97
2022-08-03T16:47:22.352Z,101412.56
2022-08-03T16:49:54.832Z,101404.38
2022-08-03T16:52:23.627Z,101405.59
2022-08-03T16:54:53.557Z,101414.69
2022-08-03T16:57:58.255Z,101409.00
2022-08-03T17:00:33.206Z,101409.66
2022-08-03T17:03:04.325Z,101412.63
2022-08-03T17:05:37.685Z,101408.28
2022-08-03T17:08:13.980Z,101405.47
2022-08-03T17:10:45.045Z,101390.91
2022-08-03T17:13:13.077Z,101412.25
2022-08-03T17:16:00.596Z,101410.16
2022-08-03T17:18:32.339Z,101385.31
2022-08-03T17:21:03.549Z,101388.19
2022-08-03T17:23:45.714Z,101409.44
2022-08-03T17:26:21.589Z,101411.31
2022-08-03T17:28:57.753Z,101402.78
2022-08-03T17:31:31.827Z,101392.06
2022-08-03T17:34:08.014Z,101401.38
2022-08-03T17:37:02.683Z,101402.03
2022-08-03T17:39:41.661Z,101402.34
2022-08-03T17:42:29.309Z,101399.66
2022-08-03T17:44:58.529Z,101404.19
2022-08-03T17:47:42.820Z,101404.53
2022-08-03T17:50:24.805Z,101415.22
2022-08-03T17:55:56.671Z,101406.59
2022-08-03T17:58:33.222Z,101407.25
2022-08-03T18:02:02.798Z,101409.97
2022-08-03T18:04:10.629Z,101416.91
2022-08-03T18:06:38.830Z,101412.88
2022-08-03T18:10:05.883Z,101394.41
2022-08-03T18:12:14.332Z,101418.63
2022-08-03T18:14:57.672Z,101403.47
2022-08-03T18:17:55.858Z,101417.31
2022-08-03T18:20:32.896Z,101412.94
2022-08-03T18:23:06.027Z,101401.19
2022-08-03T18:25:43.081Z,101415.31
2022-08-03T18:28:19.127Z,101402.97
2022-08-03T18:30:53.259Z,101415.13
2022-08-03T18:34:18.079Z,101404.47
2022-08-03T18:36:18.017Z,101412.53
2022-08-03T18:38:46.473Z,101405.94
2022-08-03T18:41:17.336Z,101412.88
2022-08-03T18:44:07.155Z,101403.03
2022-08-03T18:49:11.441Z,101410.63
2022-08-03T18:51:43.301Z,101410.13
2022-08-03T18:54:47.084Z,101406.66
2022-08-03T18:57:10.266Z,101405.63
2022-08-03T18:59:46.815Z,101404.00
2022-08-03T19:02:29.739Z,101410.16
2022-08-03T19:05:04.277Z,101393.63
2022-08-03T19:07:36.024Z,101408.81
2022-08-03T19:10:04.924Z,101422.16
2022-08-03T19:12:44.677Z,101426.41
2022-08-03T19:15:13.395Z,101417.56
2022-08-03T19:17:50.248Z,101415.13
2022-08-03T19:20:22.547Z,101409.22
2022-08-03T19:22:52.666Z,101426.28
2022-08-03T19:25:34.876Z,101424.81
2022-08-03T19:28:04.043Z,101427.44
2022-08-03T19:30:35.738Z,101428.19
2022-08-03T19:33:13.175Z,101423.69
2022-08-03T19:35:54.990Z,101417.84
2022-08-03T19:38:28.202Z,101419.16
2022-08-03T19:41:02.212Z,101426.22
2022-08-03T19:43:52.993Z,101425.91
2022-08-03T19:46:21.892Z,101425.94
2022-08-03T19:49:10.652Z,101429.72
2022-08-03T19:52:02.101Z,101431.31
2022-08-03T19:54:43.795Z,101417.19
2022-08-03T19:57:19.813Z,101430.34
2022-08-03T19:59:50.058Z,101420.38
2022-08-03T20:02:26.985Z,101421.16
2022-08-03T20:04:55.827Z,101412.81
2022-08-03T20:07:22.994Z,101414.66
2022-08-03T20:09:54.512Z,101412.53
2022-08-03T20:12:27.588Z,101428.19
2022-08-03T20:14:58.589Z,101422.63
2022-08-03T20:17:55.366Z,101412.38
2022-08-03T20:20:12.326Z,101400.56
2022-08-03T20:22:43.154Z,101409.88
2022-08-03T20:25:24.251Z,101393.66
2022-08-03T20:28:14.966Z,101409.19
2022-08-03T20:30:49.031Z,101409.13
2022-08-03T20:33:19.527Z,101407.44
2022-08-03T20:35:54.446Z,101398.50
2022-08-03T20:38:27.149Z,101398.75
2022-08-03T20:40:54.029Z,101409.75
2022-08-03T20:43:20.497Z,101409.81
2022-08-03T20:46:00.735Z,101401.31
2022-08-03T20:48:35.837Z,101391.03
2022-08-03T20:51:05.269Z,101402.34
2022-08-03T20:53:59.876Z,101408.84
2022-08-03T20:56:32.245Z,101413.03
2022-08-03T20:59:04.867Z,101400.38
2022-08-03T21:01:35.938Z,101393.78
2022-08-03T21:04:06.967Z,101395.84
2022-08-03T21:06:45.610Z,101391.69
2022-08-03T21:09:22.416Z,101389.06
2022-08-03T21:11:50.698Z,101386.06
2022-08-03T21:13:04.791Z,101408.25
2022-08-03T21:14:33.042Z,101374.78
2022-08-03T21:17:09.421Z,101384.47
2022-08-03T21:19:41.613Z,101390.19
2022-08-03T21:22:23.421Z,101369.94
2022-08-03T21:24:55.946Z,101379.88
2022-08-03T21:27:23.686Z,101382.72
2022-08-03T21:29:53.220Z,101381.91
2022-08-03T21:32:32.684Z,101377.28
2022-08-03T21:35:00.041Z,101384.00
2022-08-03T21:37:27.510Z,101376.94
2022-08-03T21:39:55.306Z,101378.63
2022-08-03T21:42:23.828Z,101378.38
2022-08-03T21:44:52.054Z,101370.97
2022-08-03T21:47:20.002Z,101367.38
2022-08-03T21:50:06.083Z,101366.06
2022-08-03T21:52:35.659Z,101370.25
2022-08-03T21:55:05.997Z,101371.03
2022-08-03T21:57:37.572Z,101323.19
2022-08-03T22:00:10.456Z,101365.59
2022-08-03T22:02:39.010Z,101348.88
2022-08-03T22:05:09.448Z,101341.25
2022-08-03T22:07:43.186Z,101342.94
2022-08-03T22:10:10.413Z,101346.97
2022-08-03T22:12:38.252Z,101329.31
2022-08-03T22:15:07.826Z,101346.31
2022-08-03T22:17:55.786Z,101344.22
2022-08-03T22:20:22.800Z,101336.13
2022-08-03T22:22:55.352Z,101350.56
2022-08-03T22:25:27.307Z,101353.94
2022-08-03T22:27:54.419Z,101348.88
2022-08-03T22:30:21.139Z,101344.28
2022-08-03T22:32:50.429Z,101337.50
2022-08-03T22:35:18.230Z,101341.06
2022-08-03T22:37:45.629Z,101338.56
2022-08-03T22:40:15.212Z,101332.84
2022-08-03T22:42:45.554Z,101335.59
2022-08-03T22:45:12.179Z,101342.78
2022-08-03T22:47:58.638Z,101336.16
2022-08-03T22:50:33.234Z,101341.22
2022-08-03T22:53:00.761Z,101329.00
2022-08-03T22:55:27.713Z,101341.22
2022-08-03T22:57:56.185Z,101341.56
2022-08-03T23:00:23.533Z,101341.47
2022-08-03T23:02:51.045Z,101338.84
2022-08-03T23:06:01.779Z,101332.09
2022-08-03T23:08:11.516Z,101339.06
2022-08-03T23:10:44.891Z,101335.59
2022-08-03T23:13:13.389Z,101344.31
2022-08-03T23:15:40.150Z,101339.34
2022-08-03T23:18:07.440Z,101335.59
2022-08-03T23:20:34.159Z,101341.63
2022-08-03T23:23:00.772Z,101335.78
2022-08-03T23:25:27.214Z,101342.47
2022-08-03T23:28:04.524Z,101335.09
2022-08-03T23:30:34.176Z,101341.78
2022-08-03T23:33:01.260Z,101341.44
2022-08-03T23:36:22.668Z,101340.28
2022-08-03T23:38:36.647Z,101346.81
2022-08-03T23:41:04.364Z,101330.50
2022-08-03T23:43:51.263Z,101346.38
2022-08-03T23:46:21.869Z,101328.44
2022-08-03T23:48:48.319Z,101337.38
2022-08-03T23:51:41.095Z,101325.34
2022-08-03T23:54:41.719Z,101346.72
2022-08-03T23:57:29.911Z,101344.53
